Time;durP1;ratioP1;P1;durP2;ratioP2;P2;SDS_P1;SDS_P2;PMS_P1;PMS_P2;Temp;Humidity;BMP_temperature;BMP_pressure;BME280_temperature;BME280_humidity;BME280_pressure;Samples;Min_cycle;Max_cycle;Signal;HPM_P1;HPM_P2
2021/10/23 00:00:42;;;;;;;19.63;12.68;;;;;;;;;;5110892;28;20095;-71
2021/10/23 00:04:12;;;;;;;20.33;14.77;;;;;;;;;;5110977;27;20423;-71
2021/10/23 00:06:38;;;;;;;18.80;13.20;;;;;;;;;;5109633;28;20496;-71
2021/10/23 00:09:04;;;;;;;20.77;13.02;;;;;;;;;;5109539;28;20039;-71
2021/10/23 00:11:31;;;;;;;22.38;14.88;;;;;;;;;;5110619;28;20024;-71
2021/10/23 00:13:57;;;;;;;27.38;15.23;;;;;;;;;;5110853;28;20019;-71
2021/10/23 00:16:23;;;;;;;27.25;17.50;;;;;;;;;;5109976;28;20027;-72
2021/10/23 00:18:49;;;;;;;26.10;16.15;;;;;;;;;;5109202;28;20024;-72
2021/10/23 00:22:53;;;;;;;25.25;14.48;;;;;;;;;;5111222;27;20466;-72
2021/10/23 00:27:14;;;;;;;27.92;17.20;;;;;;;;;;5111736;27;20829;-72
2021/10/23 00:29:40;;;;;;;24.48;14.77;;;;;;;;;;5110997;28;20020;-69
2021/10/23 00:32:06;;;;;;;22.40;14.00;;;;;;;;;;5110361;28;20076;-69
2021/10/23 00:34:32;;;;;;;22.38;13.98;;;;;;;;;;5110886;28;20031;-69
2021/10/23 00:38:00;;;;;;;21.17;13.98;;;;;;;;;;5110954;27;20488;-71
2021/10/23 00:40:27;;;;;;;21.83;14.02;;;;;;;;;;5090286;28;20032;-71
2021/10/23 00:42:53;;;;;;;19.00;12.25;;;;;;;;;;5090380;28;20354;-71
2021/10/23 00:45:20;;;;;;;22.73;15.57;;;;;;;;;;5090402;28;20025;-71
2021/10/23 00:47:46;;;;;;;23.45;16.15;;;;;;;;;;5090120;28;20461;-71
2021/10/23 00:50:13;;;;;;;22.42;15.68;;;;;;;;;;5090417;28;20066;-73
2021/10/23 00:52:39;;;;;;;20.55;13.13;;;;;;;;;;5089910;28;20414;-71
2021/10/23 00:55:09;;;;;;;19.30;11.77;;;;;;;;;;5090178;28;20016;-71
2021/10/23 00:57:35;;;;;;;22.33;12.80;;;;;;;;;;5090178;28;20191;-71
2021/10/23 01:00:01;;;;;;;18.95;12.68;;;;;;;;;;5090009;28;20016;-71
2021/10/23 01:02:28;;;;;;;20.00;11.68;;;;;;;;;;5090119;28;20027;-71
2021/10/23 01:04:54;;;;;;;17.50;11.18;;;;;;;;;;5090102;28;20043;-71
2021/10/23 01:07:20;;;;;;;23.15;13.93;;;;;;;;;;5089944;28;20039;-71
2021/10/23 01:09:46;;;;;;;20.88;12.35;;;;;;;;;;5089991;28;20021;-71
2021/10/23 01:12:13;;;;;;;24.70;14.85;;;;;;;;;;5090505;28;20036;-72
2021/10/23 01:14:40;;;;;;;22.38;14.07;;;;;;;;;;5089493;28;20012;-71
2021/10/23 01:17:07;;;;;;;18.95;13.27;;;;;;;;;;5088412;28;20155;-71
2021/10/23 01:19:33;;;;;;;17.60;10.80;;;;;;;;;;5088518;28;20028;-71
2021/10/23 01:22:00;;;;;;;20.45;12.45;;;;;;;;;;5089480;28;20024;-71
2021/10/23 01:24:27;;;;;;;16.98;12.43;;;;;;;;;;5089760;28;20029;-71
2021/10/23 01:26:53;;;;;;;18.92;11.88;;;;;;;;;;5089762;28;20481;-70
2021/10/23 01:29:20;;;;;;;21.50;13.95;;;;;;;;;;5089287;28;20024;-71
2021/10/23 01:31:47;;;;;;;19.42;13.80;;;;;;;;;;5089564;28;20028;-71
2021/10/23 01:34:20;;;;;;;24.88;15.23;;;;;;;;;;5088756;28;20134;-71
2021/10/23 01:36:48;;;;;;;26.13;16.88;;;;;;;;;;5098527;28;20052;-70
2021/10/23 01:39:14;;;;;;;24.90;17.13;;;;;;;;;;5091338;28;20106;-71
2021/10/23 01:41:40;;;;;;;26.30;16.52;;;;;;;;;;5109188;28;20651;-71
2021/10/23 01:44:07;;;;;;;28.05;18.38;;;;;;;;;;5109600;28;20054;-71
2021/10/23 01:46:33;;;;;;;28.90;17.70;;;;;;;;;;5109399;28;20024;-71
2021/10/23 01:49:01;;;;;;;26.83;16.08;;;;;;;;;;5096893;28;20069;-71
2021/10/23 01:51:27;;;;;;;21.23;14.20;;;;;;;;;;5095692;28;20432;-71
2021/10/23 01:53:53;;;;;;;23.98;15.43;;;;;;;;;;5095833;28;20060;-71
2021/10/23 01:56:20;;;;;;;21.38;14.70;;;;;;;;;;5095386;28;20050;-70
2021/10/23 01:58:46;;;;;;;30.25;16.27;;;;;;;;;;5095914;28;20102;-69
2021/10/23 02:01:12;;;;;;;25.05;16.40;;;;;;;;;;5095870;28;20020;-70
2021/10/23 02:03:38;;;;;;;23.55;14.77;;;;;;;;;;5095568;28;20496;-70
2021/10/23 02:06:08;;;;;;;23.88;15.20;;;;;;;;;;5095869;28;20130;-70
2021/10/23 02:08:35;;;;;;;21.67;13.73;;;;;;;;;;5095773;28;20065;-70
2021/10/23 02:11:01;;;;;;;22.73;12.27;;;;;;;;;;5095499;28;20476;-70
2021/10/23 02:13:27;;;;;;;16.45;11.00;;;;;;;;;;5095858;28;20056;-70
2021/10/23 02:15:53;;;;;;;22.55;13.10;;;;;;;;;;5095522;28;20524;-70
2021/10/23 02:18:20;;;;;;;20.00;12.57;;;;;;;;;;5095224;28;20036;-71
2021/10/23 02:20:46;;;;;;;19.98;13.48;;;;;;;;;;5095471;28;20530;-70
2021/10/23 02:23:12;;;;;;;19.45;12.82;;;;;;;;;;5095465;28;20067;-70
2021/10/23 02:25:38;;;;;;;24.48;15.98;;;;;;;;;;5094974;28;20076;-70
2021/10/23 02:28:04;;;;;;;25.77;15.60;;;;;;;;;;5095247;28;20035;-70
2021/10/23 02:30:31;;;;;;;21.25;14.77;;;;;;;;;;5095251;28;20061;-70
2021/10/23 02:32:57;;;;;;;24.65;15.73;;;;;;;;;;5094887;28;20028;-70
2021/10/23 02:35:23;;;;;;;22.67;15.50;;;;;;;;;;5095079;28;20020;-70
2021/10/23 02:37:49;;;;;;;24.38;13.93;;;;;;;;;;5094803;28;20044;-69
2021/10/23 02:40:16;;;;;;;22.48;14.10;;;;;;;;;;5094661;28;20029;-70
2021/10/23 02:42:42;;;;;;;18.95;13.25;;;;;;;;;;5095013;28;20111;-69
2021/10/23 02:45:09;;;;;;;18.95;11.75;;;;;;;;;;5094481;28;20476;-70
2021/10/23 02:47:36;;;;;;;19.52;11.82;;;;;;;;;;5094998;28;20023;-70
2021/10/23 02:50:03;;;;;;;21.15;13.30;;;;;;;;;;5094820;28;20028;-70
2021/10/23 02:52:29;;;;;;;21.05;13.15;;;;;;;;;;5094439;28;20018;-70
2021/10/23 02:54:56;;;;;;;22.13;13.68;;;;;;;;;;5094970;28;20069;-70
2021/10/23 02:57:22;;;;;;;15.90;11.23;;;;;;;;;;5094556;28;20089;-70
2021/10/23 02:59:48;;;;;;;19.35;13.43;;;;;;;;;;5093308;28;20027;-69
2021/10/23 03:02:14;;;;;;;22.13;13.40;;;;;;;;;;5094586;28;20415;-70
2021/10/23 03:04:43;;;;;;;20.20;12.43;;;;;;;;;;5076279;28;20073;-70
2021/10/23 03:07:10;;;;;;;22.02;13.68;;;;;;;;;;5094452;28;20089;-72
2021/10/23 03:09:36;;;;;;;23.02;14.88;;;;;;;;;;5094461;28;20063;-70
2021/10/23 03:12:02;;;;;;;20.85;13.75;;;;;;;;;;5094561;28;20024;-70
2021/10/23 03:14:28;;;;;;;23.75;14.65;;;;;;;;;;5075781;28;20043;-70
2021/10/23 03:16:55;;;;;;;23.67;14.77;;;;;;;;;;5094197;28;20109;-70
2021/10/23 03:19:21;;;;;;;32.28;20.58;;;;;;;;;;5076068;28;20024;-70
2021/10/23 03:21:47;;;;;;;31.00;21.40;;;;;;;;;;5075635;28;20030;-70
2021/10/23 03:24:14;;;;;;;34.67;22.05;;;;;;;;;;5094145;28;20033;-70
2021/10/23 03:26:40;;;;;;;32.85;20.52;;;;;;;;;;5094100;28;20031;-70
2021/10/23 03:29:06;;;;;;;37.03;22.63;;;;;;;;;;5093688;28;20021;-69
2021/10/23 03:31:33;;;;;;;36.10;21.20;;;;;;;;;;5094054;28;20038;-70
2021/10/23 03:33:59;;;;;;;33.13;21.00;;;;;;;;;;5094154;28;20021;-69
2021/10/23 03:36:25;;;;;;;30.30;20.08;;;;;;;;;;5093211;28;20059;-69
2021/10/23 03:38:52;;;;;;;28.05;18.35;;;;;;;;;;5075684;28;20103;-69
2021/10/23 03:41:18;;;;;;;37.97;23.58;;;;;;;;;;5093451;28;20051;-70
2021/10/23 03:43:44;;;;;;;33.38;20.75;;;;;;;;;;5093766;28;20033;-69
2021/10/23 03:46:10;;;;;;;48.13;28.15;;;;;;;;;;5093766;28;20502;-69
2021/10/23 03:48:36;;;;;;;29.90;19.65;;;;;;;;;;5075082;28;20396;-69
2021/10/23 03:51:02;;;;;;;25.70;15.65;;;;;;;;;;5075505;28;20583;-70
2021/10/23 03:53:29;;;;;;;21.50;12.15;;;;;;;;;;5093732;28;20039;-69
2021/10/23 03:55:55;;;;;;;20.40;13.48;;;;;;;;;;5093218;28;20016;-69
2021/10/23 03:58:21;;;;;;;21.73;15.40;;;;;;;;;;5093498;28;20136;-69
2021/10/23 04:00:47;;;;;;;22.10;14.90;;;;;;;;;;5075452;28;20369;-69
2021/10/23 04:03:13;;;;;;;29.95;16.63;;;;;;;;;;5093415;28;20028;-70
2021/10/23 04:05:40;;;;;;;34.65;20.77;;;;;;;;;;5093673;28;20020;-70
2021/10/23 04:08:06;;;;;;;52.75;25.88;;;;;;;;;;5093656;28;20039;-71
2021/10/23 04:10:32;;;;;;;46.67;28.45;;;;;;;;;;5092908;28;20024;-70
2021/10/23 04:12:58;;;;;;;71.88;48.00;;;;;;;;;;5093360;28;20095;-68
2021/10/23 04:15:25;;;;;;;63.58;41.30;;;;;;;;;;5075126;28;20565;-69
2021/10/23 04:17:51;;;;;;;58.13;37.28;;;;;;;;;;5092840;28;20037;-69
2021/10/23 04:20:17;;;;;;;45.47;31.90;;;;;;;;;;5093513;28;20027;-69
2021/10/23 04:22:43;;;;;;;42.25;29.20;;;;;;;;;;5093588;28;20020;-69
2021/10/23 04:25:09;;;;;;;42.17;28.83;;;;;;;;;;5092829;28;20016;-69
2021/10/23 04:27:36;;;;;;;37.15;27.60;;;;;;;;;;5093467;28;20016;-69
2021/10/23 04:30:02;;;;;;;46.45;33.95;;;;;;;;;;5093119;28;20055;-70
2021/10/23 04:32:28;;;;;;;40.47;26.52;;;;;;;;;;5092644;28;20016;-69
2021/10/23 04:34:54;;;;;;;34.53;24.30;;;;;;;;;;5074927;28;20020;-69
2021/10/23 04:37:20;;;;;;;40.88;26.95;;;;;;;;;;5092832;28;20048;-69
2021/10/23 04:39:46;;;;;;;42.78;28.08;;;;;;;;;;5092728;28;20532;-69
2021/10/23 04:42:13;;;;;;;45.60;29.55;;;;;;;;;;5092970;28;20027;-68
2021/10/23 04:44:39;;;;;;;52.08;33.80;;;;;;;;;;5092566;28;20058;-69
2021/10/23 04:47:05;;;;;;;56.17;36.25;;;;;;;;;;5092857;28;20034;-69
2021/10/23 04:49:31;;;;;;;57.85;36.63;;;;;;;;;;5092978;28;20024;-69
2021/10/23 04:51:57;;;;;;;63.97;38.70;;;;;;;;;;5074418;28;20035;-71
2021/10/23 04:54:24;;;;;;;63.78;41.95;;;;;;;;;;5093250;28;20028;-70
2021/10/23 04:56:50;;;;;;;63.90;37.90;;;;;;;;;;5092800;28;20115;-68
2021/10/23 04:59:16;;;;;;;65.55;37.83;;;;;;;;;;5092570;28;20020;-68
2021/10/23 05:01:42;;;;;;;56.03;30.92;;;;;;;;;;5092972;28;20020;-69
2021/10/23 05:04:08;;;;;;;44.63;25.98;;;;;;;;;;5074779;28;20024;-69
2021/10/23 05:06:34;;;;;;;39.08;24.73;;;;;;;;;;5092614;28;20024;-69
2021/10/23 05:09:01;;;;;;;41.55;26.88;;;;;;;;;;5092861;28;20027;-70
2021/10/23 05:11:27;;;;;;;29.42;20.67;;;;;;;;;;5074787;28;20392;-69
2021/10/23 05:13:53;;;;;;;42.63;22.58;;;;;;;;;;5092434;28;20028;-70
2021/10/23 05:16:19;;;;;;;31.27;21.42;;;;;;;;;;5092636;28;20028;-69
2021/10/23 05:18:49;;;;;;;33.20;22.38;;;;;;;;;;5092995;28;20031;-69
2021/10/23 05:21:16;;;;;;;34.65;21.67;;;;;;;;;;5092402;28;20371;-70
2021/10/23 05:23:42;;;;;;;32.97;22.83;;;;;;;;;;5094963;28;20055;-70
2021/10/23 05:26:08;;;;;;;35.55;23.90;;;;;;;;;;5096596;28;20081;-70
2021/10/23 05:28:35;;;;;;;36.22;26.38;;;;;;;;;;5096120;28;20088;-70
2021/10/23 05:31:01;;;;;;;30.10;21.73;;;;;;;;;;5096433;28;20430;-69
2021/10/23 05:33:27;;;;;;;31.27;21.88;;;;;;;;;;5096361;28;20106;-69
2021/10/23 05:35:53;;;;;;;32.40;21.83;;;;;;;;;;5095783;28;20365;-69
2021/10/23 05:38:20;;;;;;;60.03;34.53;;;;;;;;;;5096636;28;20034;-71
2021/10/23 05:40:46;;;;;;;70.57;41.10;;;;;;;;;;5096221;28;20017;-71
2021/10/23 05:43:12;;;;;;;40.28;27.35;;;;;;;;;;5096258;28;20028;-71
2021/10/23 05:45:38;;;;;;;35.45;24.80;;;;;;;;;;5078073;28;20111;-70
2021/10/23 05:48:05;;;;;;;48.03;29.27;;;;;;;;;;5095795;28;20023;-71
2021/10/23 05:50:31;;;;;;;42.80;31.05;;;;;;;;;;5096129;28;20024;-71
2021/10/23 05:52:57;;;;;;;84.25;47.92;;;;;;;;;;5096424;28;20169;-71
2021/10/23 05:55:23;;;;;;;148.32;90.88;;;;;;;;;;5095580;28;20035;-71
2021/10/23 05:57:49;;;;;;;93.95;56.58;;;;;;;;;;5096370;28;20036;-69
2021/10/23 06:00:15;;;;;;;67.30;42.60;;;;;;;;;;5095731;28;20031;-68
2021/10/23 06:02:44;;;;;;;50.80;32.85;;;;;;;;;;5095499;28;20426;-70
2021/10/23 06:05:10;;;;;;;40.17;26.13;;;;;;;;;;5095911;28;20019;-69
2021/10/23 06:07:40;;;;;;;33.20;24.73;;;;;;;;;;5095836;28;20020;-69
2021/10/23 06:10:07;;;;;;;33.75;22.73;;;;;;;;;;5095303;28;20388;-71
2021/10/23 06:12:34;;;;;;;37.10;25.42;;;;;;;;;;5095909;28;20021;-70
2021/10/23 06:15:00;;;;;;;39.00;26.08;;;;;;;;;;5095581;28;20533;-70
2021/10/23 06:17:27;;;;;;;48.92;32.08;;;;;;;;;;5076895;28;20036;-70
2021/10/23 06:19:54;;;;;;;68.40;44.67;;;;;;;;;;5095678;28;20048;-70
2021/10/23 06:22:20;;;;;;;71.78;42.75;;;;;;;;;;5095503;28;20059;-71
2021/10/23 06:24:46;;;;;;;69.07;44.92;;;;;;;;;;5094970;28;20024;-71
2021/10/23 06:27:12;;;;;;;86.55;56.38;;;;;;;;;;5095182;28;20028;-70
2021/10/23 06:29:39;;;;;;;59.67;39.97;;;;;;;;;;5095190;28;20467;-69
2021/10/23 06:32:06;;;;;;;52.47;35.95;;;;;;;;;;5094807;28;20043;-70
2021/10/23 06:35:55;;;;;;;96.97;56.15;;;;;;;;;;5110894;27;20306;-69
2021/10/23 06:38:21;;;;;;;49.53;28.65;;;;;;;;;;5090370;28;20093;-71
2021/10/23 06:40:47;;;;;;;57.90;33.92;;;;;;;;;;5089345;28;20082;-71
2021/10/23 06:43:14;;;;;;;77.93;48.45;;;;;;;;;;5091044;28;20416;-71
2021/10/23 06:45:40;;;;;;;71.78;45.30;;;;;;;;;;5089942;28;20024;-70
2021/10/23 06:48:07;;;;;;;64.05;41.00;;;;;;;;;;5090501;28;20074;-70
2021/10/23 06:52:25;;;;;;;49.25;32.72;;;;;;;;;;5131442;27;20122;-71
2021/10/23 06:54:51;;;;;;;46.72;30.05;;;;;;;;;;5110944;28;20107;-71
2021/10/23 06:59:10;;;;;;;44.92;27.90;;;;;;;;;;5110771;27;20977;-71
2021/10/23 07:01:36;;;;;;;53.22;33.35;;;;;;;;;;5111016;28;20024;-70
2021/10/23 07:04:03;;;;;;;62.10;32.50;;;;;;;;;;5110936;28;20024;-71
2021/10/23 07:06:29;;;;;;;52.55;30.50;;;;;;;;;;5110629;28;20020;-70
2021/10/23 07:08:55;;;;;;;52.25;34.33;;;;;;;;;;5110913;28;20024;-71
2021/10/23 07:12:58;;;;;;;56.60;37.22;;;;;;;;;;5111377;27;20393;-70
2021/10/23 07:16:24;;;;;;;48.00;32.13;;;;;;;;;;5111360;27;20397;-72
2021/10/23 07:18:50;;;;;;;51.25;31.15;;;;;;;;;;5111110;28;20028;-71
2021/10/23 07:21:32;;;;;;;45.20;30.90;;;;;;;;;;5110669;27;20454;-71
2021/10/23 07:23:59;;;;;;;50.85;31.13;;;;;;;;;;5111094;28;20027;-71
2021/10/23 07:26:25;;;;;;;43.25;29.70;;;;;;;;;;5111162;28;20024;-71
2021/10/23 07:29:46;;;;;;;32.97;22.60;;;;;;;;;;5111334;27;20450;-70
2021/10/23 07:32:13;;;;;;;34.50;22.98;;;;;;;;;;5111063;28;20020;-69
2021/10/23 07:35:14;;;;;;;54.80;32.10;;;;;;;;;;5110892;27;20388;-70
2021/10/23 07:37:40;;;;;;;41.22;25.40;;;;;;;;;;5111061;28;20115;-70
2021/10/23 07:40:08;;;;;;;32.88;20.73;;;;;;;;;;5111081;28;20430;-72
2021/10/23 07:42:35;;;;;;;44.20;32.35;;;;;;;;;;5110553;28;20498;-71
2021/10/23 07:45:01;;;;;;;27.75;18.75;;;;;;;;;;5110826;28;20027;-71
2021/10/23 07:47:58;;;;;;;24.05;15.02;;;;;;;;;;5111024;27;20389;-71
2021/10/23 07:50:24;;;;;;;20.40;13.55;;;;;;;;;;5111077;28;20023;-71
2021/10/23 07:52:50;;;;;;;16.67;11.48;;;;;;;;;;5110932;28;20035;-72
2021/10/23 07:55:16;;;;;;;24.33;14.10;;;;;;;;;;5110831;28;20020;-70
2021/10/23 07:58:44;;;;;;;29.63;17.92;;;;;;;;;;5111675;27;20474;-69
2021/10/23 08:03:00;;;;;;;23.42;15.50;;;;;;;;;;5111015;27;20446;-71
2021/10/23 08:05:27;;;;;;;19.17;12.45;;;;;;;;;;5111101;28;20114;-71
2021/10/23 08:07:54;;;;;;;21.02;13.43;;;;;;;;;;5111497;28;20499;-71
2021/10/23 08:11:06;;;;;;;20.52;12.98;;;;;;;;;;5111015;27;20392;-69
2021/10/23 08:13:33;;;;;;;28.75;17.50;;;;;;;;;;5110954;28;20036;-71
2021/10/23 08:16:00;;;;;;;19.85;12.88;;;;;;;;;;5110648;28;20462;-69
2021/10/23 08:18:26;;;;;;;18.02;12.05;;;;;;;;;;5110848;28;20337;-70
2021/10/23 08:20:53;;;;;;;21.65;13.63;;;;;;;;;;5110996;28;20055;-70
2021/10/23 08:25:37;;;;;;;19.00;13.45;;;;;;;;;;5111646;27;20388;-70
2021/10/23 08:28:05;;;;;;;15.20;9.95;;;;;;;;;;5111184;28;20028;-71
2021/10/23 08:30:32;;;;;;;15.95;10.63;;;;;;;;;;5110753;28;20041;-71
2021/10/23 08:33:37;;;;;;;19.83;12.40;;;;;;;;;;5111074;27;21005;-71
2021/10/23 08:36:03;;;;;;;16.63;11.45;;;;;;;;;;5111130;28;20023;-70
2021/10/23 08:38:29;;;;;;;20.40;11.02;;;;;;;;;;5110645;28;20031;-69
2021/10/23 08:40:56;;;;;;;21.08;15.07;;;;;;;;;;5111382;28;20024;-68
2021/10/23 08:43:23;;;;;;;23.58;17.08;;;;;;;;;;5110984;28;20074;-69
2021/10/23 08:45:52;;;;;;;23.88;15.07;;;;;;;;;;5109121;28;20020;-69
2021/10/23 08:50:12;;;;;;;16.70;10.60;;;;;;;;;;5111463;27;20450;-69
2021/10/23 08:52:39;;;;;;;18.02;12.90;;;;;;;;;;5110568;28;20027;-68
2021/10/23 08:55:34;;;;;;;17.30;10.55;;;;;;;;;;5111529;27;20950;-71
2021/10/23 08:58:00;;;;;;;19.63;12.95;;;;;;;;;;5110674;28;20024;-70
2021/10/23 09:00:26;;;;;;;13.40;8.73;;;;;;;;;;5110960;28;20020;-69
2021/10/23 09:02:53;;;;;;;12.60;7.68;;;;;;;;;;5111112;28;20024;-70
2021/10/23 09:05:56;;;;;;;13.00;7.97;;;;;;;;;;5110744;27;20393;-70
2021/10/23 09:11:05;;;;;;;11.52;7.40;;;;;;;;;;5111732;27;20450;-72
2021/10/23 09:13:33;;;;;;;13.73;7.60;;;;;;;;;;5110878;28;20044;-71
2021/10/23 09:15:59;;;;;;;13.38;8.95;;;;;;;;;;5110946;28;20394;-71
2021/10/23 09:18:44;;;;;;;14.40;9.68;;;;;;;;;;5111257;28;20030;-71
2021/10/23 09:26:40;;;;;;;10.85;6.78;;;;;;;;;;5110856;27;20438;-71
2021/10/23 09:30:19;;;;;;;13.98;7.45;;;;;;;;;;5111783;27;20397;-69
2021/10/23 09:32:50;;;;;;;11.98;7.25;;;;;;;;;;5110955;28;20107;-69
2021/10/23 09:35:17;;;;;;;11.07;7.22;;;;;;;;;;5110559;28;20028;-68
2021/10/23 09:37:44;;;;;;;10.57;6.95;;;;;;;;;;5109640;28;20031;-69
2021/10/23 09:40:11;;;;;;;9.90;6.00;;;;;;;;;;5110454;28;20048;-70
2021/10/23 09:42:37;;;;;;;11.82;6.13;;;;;;;;;;5110601;28;20028;-69
2021/10/23 09:45:05;;;;;;;15.85;7.43;;;;;;;;;;5110722;28;20023;-69
2021/10/23 09:47:32;;;;;;;13.20;7.68;;;;;;;;;;5109949;28;20510;-69
2021/10/23 09:50:05;;;;;;;11.25;6.97;;;;;;;;;;5110361;28;20087;-69
2021/10/23 09:52:33;;;;;;;11.63;6.40;;;;;;;;;;5110597;28;20092;-70
2021/10/23 09:55:07;;;;;;;11.45;6.22;;;;;;;;;;5110516;28;20024;-72
2021/10/23 09:57:33;;;;;;;10.10;6.47;;;;;;;;;;5110620;28;20015;-71
2021/10/23 10:00:11;;;;;;;11.15;6.75;;;;;;;;;;5110544;28;20494;-71
2021/10/23 10:02:39;;;;;;;17.23;9.32;;;;;;;;;;5110169;28;20031;-70
2021/10/23 10:05:05;;;;;;;13.40;8.93;;;;;;;;;;5110628;28;20142;-70
2021/10/23 10:07:32;;;;;;;12.88;7.90;;;;;;;;;;5110269;28;20024;-71
2021/10/23 10:09:59;;;;;;;11.60;7.45;;;;;;;;;;5109759;28;20031;-71
2021/10/23 10:14:33;;;;;;;11.98;7.38;;;;;;;;;;5111563;27;20397;-69
2021/10/23 10:17:00;;;;;;;15.40;9.32;;;;;;;;;;5110556;28;20054;-70
2021/10/23 10:19:27;;;;;;;13.60;9.35;;;;;;;;;;5110957;28;20099;-70
2021/10/23 10:22:26;;;;;;;14.55;9.20;;;;;;;;;;5111487;27;20768;-71
2021/10/23 10:25:12;;;;;;;12.43;8.43;;;;;;;;;;5110932;28;20070;-70
2021/10/23 10:27:45;;;;;;;15.55;11.00;;;;;;;;;;5110890;28;20028;-70
2021/10/23 10:30:38;;;;;;;17.85;9.35;;;;;;;;;;5131167;27;20120;-69
2021/10/23 10:33:43;;;;;;;17.85;10.50;;;;;;;;;;5110870;28;20035;-70
2021/10/23 10:36:31;;;;;;;14.43;9.05;;;;;;;;;;5059473;28;20438;-70
2021/10/23 10:39:22;;;;;;;14.65;9.50;;;;;;;;;;5110752;28;20464;-70
2021/10/23 10:47:07;;;;;;;19.10;11.98;;;;;;;;;;5111055;27;20389;-70
2021/10/23 10:52:32;;;;;;;13.48;9.45;;;;;;;;;;5110944;27;20450;-71
2021/10/23 10:55:12;;;;;;;15.23;9.90;;;;;;;;;;5111092;28;20047;-71
2021/10/23 10:59:51;;;;;;;14.85;9.32;;;;;;;;;;5110591;27;20400;-70
2021/10/23 11:02:30;;;;;;;26.63;10.80;;;;;;;;;;5110962;28;20542;-71
2021/10/23 11:05:12;;;;;;;17.63;10.80;;;;;;;;;;5110538;28;20472;-70
2021/10/23 11:07:59;;;;;;;15.05;10.30;;;;;;;;;;5110865;28;20107;-70
2021/10/23 11:10:43;;;;;;;16.48;10.43;;;;;;;;;;5100424;28;20089;-71
2021/10/23 11:13:28;;;;;;;15.52;10.00;;;;;;;;;;5110545;28;20027;-70
2021/10/23 11:15:55;;;;;;;20.63;10.88;;;;;;;;;;5110761;28;20039;-70
2021/10/23 11:18:21;;;;;;;15.35;9.77;;;;;;;;;;5110728;28;20038;-70
2021/10/23 11:22:01;;;;;;;20.38;13.90;;;;;;;;;;5111245;27;20389;-71
2021/10/23 11:24:28;;;;;;;18.77;12.57;;;;;;;;;;5111084;28;20073;-70
2021/10/23 11:26:55;;;;;;;23.42;12.88;;;;;;;;;;5110705;28;20023;-70
2021/10/23 11:29:22;;;;;;;23.58;15.27;;;;;;;;;;5110900;28;20073;-70
2021/10/23 11:31:49;;;;;;;21.80;15.07;;;;;;;;;;5111186;28;20047;-71
2021/10/23 11:35:33;;;;;;;19.00;13.38;;;;;;;;;;5071035;28;20395;-71
2021/10/23 11:38:35;;;;;;;17.60;12.00;;;;;;;;;;5111531;27;20437;-71
2021/10/23 11:45:48;;;;;;;18.58;12.00;;;;;;;;;;5111310;27;20396;-72
2021/10/23 11:50:23;;;;;;;19.15;12.68;;;;;;;;;;5111841;27;20450;-70
2021/10/23 11:57:05;;;;;;;16.52;11.45;;;;;;;;;;5111502;27;20462;-72
2021/10/23 12:01:49;;;;;;;21.92;14.13;;;;;;;;;;5111373;27;20393;-69
2021/10/23 12:06:39;;;;;;;23.50;14.30;;;;;;;;;;5111329;27;20450;-71
2021/10/23 12:09:25;;;;;;;20.15;12.85;;;;;;;;;;5172658;27;20114;-70
2021/10/23 12:12:04;;;;;;;21.88;13.52;;;;;;;;;;5152433;27;20062;-71
2021/10/23 12:16:36;;;;;;;27.13;16.10;;;;;;;;;;5110752;27;20787;-69
2021/10/23 12:19:06;;;;;;;20.35;13.05;;;;;;;;;;5110833;28;20028;-72
2021/10/23 12:22:48;;;;;;;22.73;14.85;;;;;;;;;;5111138;27;20788;-71
2021/10/23 12:27:21;;;;;;;21.50;13.75;;;;;;;;;;5152251;27;20396;-71
2021/10/23 12:29:57;;;;;;;21.63;13.77;;;;;;;;;;5131431;28;20037;-69
2021/10/23 12:32:26;;;;;;;22.92;13.57;;;;;;;;;;5131861;28;20027;-70
2021/10/23 12:34:53;;;;;;;17.23;12.73;;;;;;;;;;5113044;28;20030;-69
2021/10/23 12:37:52;;;;;;;21.00;12.02;;;;;;;;;;5110994;27;20949;-70
2021/10/23 12:40:24;;;;;;;25.77;15.68;;;;;;;;;;5111195;28;20028;-73
2021/10/23 12:42:53;;;;;;;22.52;14.07;;;;;;;;;;5111392;28;20321;-71
2021/10/23 12:45:32;;;;;;;20.42;12.40;;;;;;;;;;5111217;27;20462;-71
2021/10/23 12:48:02;;;;;;;18.88;12.18;;;;;;;;;;5111079;28;20024;-69
2021/10/23 12:52:03;;;;;;;17.70;12.43;;;;;;;;;;5110706;27;20381;-71
2021/10/23 12:54:29;;;;;;;20.95;11.77;;;;;;;;;;5111226;28;20028;-71
2021/10/23 13:00:20;;;;;;;21.40;14.30;;;;;;;;;;5111446;27;20446;-69
2021/10/23 13:02:46;;;;;;;28.98;14.38;;;;;;;;;;5109598;28;20028;-69
2021/10/23 13:05:13;;;;;;;21.67;14.65;;;;;;;;;;5110575;28;20050;-70
2021/10/23 13:09:57;;;;;;;27.02;15.70;;;;;;;;;;5111101;27;20389;-71
2021/10/23 13:12:23;;;;;;;22.05;13.07;;;;;;;;;;5110562;28;20035;-69
2021/10/23 13:14:49;;;;;;;22.27;12.75;;;;;;;;;;5110832;28;20103;-71
2021/10/23 13:20:39;;;;;;;18.90;10.40;;;;;;;;;;5111127;27;20401;-71
2021/10/23 13:24:26;;;;;;;19.90;13.25;;;;;;;;;;5111435;27;20393;-70
2021/10/23 13:26:53;;;;;;;19.83;13.43;;;;;;;;;;5110649;28;20035;-69
2021/10/23 13:30:06;;;;;;;16.92;10.73;;;;;;;;;;5111209;27;20464;-68
2021/10/23 13:33:21;;;;;;;17.92;11.15;;;;;;;;;;5111034;27;20450;-70
2021/10/23 13:35:47;;;;;;;19.00;12.45;;;;;;;;;;5111075;28;20444;-70
2021/10/23 13:38:13;;;;;;;18.92;12.20;;;;;;;;;;5109656;28;20111;-71
2021/10/23 13:40:40;;;;;;;20.48;12.98;;;;;;;;;;5110644;28;20380;-71
2021/10/23 13:43:07;;;;;;;22.10;14.70;;;;;;;;;;5110889;28;20024;-71
2021/10/23 13:45:33;;;;;;;22.98;14.82;;;;;;;;;;5110782;28;20027;-70
2021/10/23 13:51:36;;;;;;;22.48;14.57;;;;;;;;;;5111068;27;20426;-70
2021/10/23 13:56:08;;;;;;;19.88;12.23;;;;;;;;;;5110898;27;20470;-69
2021/10/23 13:58:34;;;;;;;25.30;13.95;;;;;;;;;;5110977;28;20028;-71
2021/10/23 14:02:11;;;;;;;27.92;17.88;;;;;;;;;;5110657;27;20401;-71
2021/10/23 14:05:42;;;;;;;23.38;14.25;;;;;;;;;;5111182;27;20450;-70
2021/10/23 14:08:09;;;;;;;32.92;20.45;;;;;;;;;;5110466;28;20452;-71
2021/10/23 14:10:50;;;;;;;27.77;16.55;;;;;;;;;;5111082;27;20965;-71
2021/10/23 14:13:16;;;;;;;25.38;16.95;;;;;;;;;;5110969;28;20032;-72
2021/10/23 14:15:43;;;;;;;31.80;19.13;;;;;;;;;;5109254;28;20024;-72
2021/10/23 14:18:10;;;;;;;29.27;19.30;;;;;;;;;;5109551;28;20032;-70
2021/10/23 14:21:37;;;;;;;25.02;17.55;;;;;;;;;;5110890;27;20388;-71
2021/10/23 14:24:56;;;;;;;26.73;17.60;;;;;;;;;;5131512;27;20118;-71
2021/10/23 14:28:40;;;;;;;26.85;18.05;;;;;;;;;;5110817;27;20904;-72
2021/10/23 14:31:13;;;;;;;29.85;18.90;;;;;;;;;;5110987;28;20426;-72
2021/10/23 14:33:39;;;;;;;28.25;18.48;;;;;;;;;;5110914;28;20024;-72
2021/10/23 14:36:06;;;;;;;29.60;19.85;;;;;;;;;;5110746;28;20063;-71
2021/10/23 14:38:50;;;;;;;29.02;20.77;;;;;;;;;;5111268;27;20722;-71
2021/10/23 14:41:16;;;;;;;27.30;18.90;;;;;;;;;;5109765;28;20081;-71
2021/10/23 14:45:44;;;;;;;30.70;22.25;;;;;;;;;;5111202;27;20462;-70
2021/10/23 14:48:11;;;;;;;34.40;23.48;;;;;;;;;;5110955;28;20023;-70
2021/10/23 14:50:37;;;;;;;32.38;23.92;;;;;;;;;;5110524;28;20130;-70
2021/10/23 14:53:31;;;;;;;28.23;20.67;;;;;;;;;;5111090;27;20439;-71
2021/10/23 14:55:57;;;;;;;27.52;19.20;;;;;;;;;;5111215;28;20030;-71
2021/10/23 14:58:23;;;;;;;28.23;20.00;;;;;;;;;;5110589;28;20028;-72
2021/10/23 15:00:49;;;;;;;33.45;21.73;;;;;;;;;;5111133;28;20432;-72
2021/10/23 15:05:55;;;;;;;31.05;21.92;;;;;;;;;;5111024;27;20446;-69
2021/10/23 15:08:22;;;;;;;27.27;17.23;;;;;;;;;;5111332;28;20541;-71
2021/10/23 15:10:48;;;;;;;26.15;17.92;;;;;;;;;;5110615;28;20032;-71
2021/10/23 15:13:14;;;;;;;29.27;20.75;;;;;;;;;;5111072;28;20019;-70
2021/10/23 15:15:40;;;;;;;26.75;18.85;;;;;;;;;;5110785;28;20069;-71
2021/10/23 15:19:13;;;;;;;28.10;17.70;;;;;;;;;;5110909;27;20393;-70
2021/10/23 15:24:35;;;;;;;31.92;20.27;;;;;;;;;;5111917;27;20384;-70
2021/10/23 15:27:01;;;;;;;32.20;20.55;;;;;;;;;;5109356;28;20028;-70
2021/10/23 15:29:27;;;;;;;32.10;20.10;;;;;;;;;;5109693;28;20441;-70
2021/10/23 15:31:54;;;;;;;28.60;18.10;;;;;;;;;;5110520;28;20085;-70
2021/10/23 15:34:20;;;;;;;28.10;16.88;;;;;;;;;;5110826;28;20020;-69
2021/10/23 15:36:47;;;;;;;26.08;17.75;;;;;;;;;;5110801;28;20030;-70
2021/10/23 15:39:15;;;;;;;25.63;16.50;;;;;;;;;;5110509;28;20023;-70
2021/10/23 15:43:09;;;;;;;35.55;21.15;;;;;;;;;;5111240;27;20388;-72
2021/10/23 15:45:35;;;;;;;33.28;21.23;;;;;;;;;;5110941;28;20020;-71
2021/10/23 15:48:02;;;;;;;31.67;19.90;;;;;;;;;;5110590;28;20077;-71
2021/10/23 15:50:28;;;;;;;25.38;16.17;;;;;;;;;;5110944;28;20024;-70
2021/10/23 15:52:54;;;;;;;26.00;16.77;;;;;;;;;;5110508;28;20080;-70
2021/10/23 15:55:20;;;;;;;28.55;17.85;;;;;;;;;;5110939;28;20472;-70
2021/10/23 16:01:50;;;;;;;22.73;14.27;;;;;;;;;;5110639;27;20435;-70
2021/10/23 16:04:47;;;;;;;21.23;12.85;;;;;;;;;;5111223;27;20954;-71
2021/10/23 16:07:13;;;;;;;24.25;16.48;;;;;;;;;;5109466;28;20024;-69
2021/10/23 16:09:39;;;;;;;24.33;16.23;;;;;;;;;;5111160;28;20016;-70
2021/10/23 16:12:38;;;;;;;26.92;15.70;;;;;;;;;;5111415;27;20502;-68